createdAt,value
2022-07-29T00:00:13.461Z,99.90
2022-07-29T00:02:40.967Z,99.90
2022-07-29T00:05:10.280Z,99.90
2022-07-29T00:07:37.380Z,99.90
2022-07-29T00:10:05.722Z,99.90
2022-07-29T00:12:33.107Z,99.90
2022-07-29T00:15:00.259Z,99.90
2022-07-29T00:17:27.634Z,99.90
2022-07-29T00:19:54.872Z,99.90
2022-07-29T00:22:22.584Z,99.90
2022-07-29T00:24:50.566Z,99.90
2022-07-29T00:27:18.833Z,99.90
2022-07-29T00:29:46.083Z,99.90
2022-07-29T00:32:13.429Z,99.90
2022-07-29T00:34:59.757Z,99.90
2022-07-29T00:37:27.434Z,99.90
2022-07-29T00:39:54.819Z,99.90
2022-07-29T00:42:21.931Z,99.90
2022-07-29T00:44:49.092Z,99.90
2022-07-29T00:47:16.270Z,99.90
2022-07-29T00:49:48.278Z,99.90
2022-07-29T00:52:17.185Z,99.90
2022-07-29T00:54:45.075Z,99.90
2022-07-29T00:57:13.247Z,99.90
2022-07-29T00:59:40.798Z,99.90
2022-07-29T01:02:07.975Z,99.90
2022-07-29T01:04:35.505Z,99.90
2022-07-29T01:07:04.075Z,99.90
2022-07-29T01:09:42.764Z,99.90
2022-07-29T01:12:20.144Z,99.90
2022-07-29T01:14:49.957Z,99.90
2022-07-29T01:17:52.660Z,99.90
2022-07-29T01:20:31.882Z,99.90
2022-07-29T01:23:05.204Z,99.90
2022-07-29T01:25:50.666Z,99.90
2022-07-29T01:28:35.464Z,99.90
2022-07-29T01:31:05.603Z,99.90
2022-07-29T01:33:50.460Z,99.90
2022-07-29T01:36:28.439Z,99.90
2022-07-29T01:39:19.946Z,99.90
2022-07-29T01:42:34.787Z,99.90
2022-07-29T01:45:19.953Z,99.90
2022-07-29T01:48:07.896Z,99.90
2022-07-29T01:50:39.478Z,99.90
2022-07-29T01:53:10.336Z,99.90
2022-07-29T01:55:41.754Z,99.90
2022-07-29T01:58:10.395Z,99.90
2022-07-29T02:00:38.705Z,99.90
2022-07-29T02:03:11.022Z,99.90
2022-07-29T02:05:40.417Z,99.90
2022-07-29T02:08:08.716Z,99.90
2022-07-29T02:10:37.229Z,99.90
2022-07-29T02:13:06.110Z,99.90
2022-07-29T02:15:36.692Z,99.90
2022-07-29T02:18:10.905Z,99.90
2022-07-29T02:20:41.255Z,99.90
2022-07-29T02:23:10.974Z,99.90
2022-07-29T02:25:40.054Z,99.90
2022-07-29T02:28:12.256Z,99.90
2022-07-29T02:30:43.236Z,99.90
2022-07-29T02:33:14.222Z,99.90
2022-07-29T02:35:44.169Z,99.90
2022-07-29T02:38:33.894Z,99.90
2022-07-29T02:41:05.195Z,99.90
2022-07-29T02:43:34.108Z,99.90
2022-07-29T02:46:03.827Z,99.90
2022-07-29T02:48:38.368Z,99.90
2022-07-29T02:51:43.754Z,99.90
2022-07-29T02:54:11.617Z,99.90
2022-07-29T02:56:40.569Z,99.90
2022-07-29T02:59:11.768Z,99.90
2022-07-29T03:01:43.886Z,99.90
2022-07-29T03:04:14.553Z,99.90
2022-07-29T03:06:44.811Z,99.90
2022-07-29T03:09:14.090Z,99.90
2022-07-29T03:11:50.489Z,99.90
2022-07-29T03:14:20.755Z,99.90
2022-07-29T03:16:49.804Z,99.90
2022-07-29T03:19:18.134Z,99.90
2022-07-29T03:21:45.474Z,99.90
2022-07-29T03:24:29.480Z,99.90
2022-07-29T03:26:57.809Z,99.90
2022-07-29T03:29:25.281Z,99.90
2022-07-29T03:32:01.078Z,99.90
2022-07-29T03:34:29.912Z,99.90
2022-07-29T03:36:57.113Z,99.90
2022-07-29T03:39:28.856Z,99.90
2022-07-29T03:41:58.035Z,99.90
2022-07-29T03:44:27.349Z,99.90
2022-07-29T03:46:56.962Z,99.90
2022-07-29T03:49:27.093Z,99.90
2022-07-29T03:51:54.426Z,99.90
2022-07-29T03:54:22.020Z,99.90
2022-07-29T03:56:51.352Z,99.90
2022-07-29T03:59:20.636Z,99.90
2022-07-29T04:01:57.151Z,99.90
2022-07-29T04:04:24.772Z,99.90
2022-07-29T04:06:54.586Z,99.90
2022-07-29T04:09:21.881Z,99.90
2022-07-29T04:12:01.735Z,99.90
2022-07-29T04:14:35.789Z,99.90
2022-07-29T04:17:04.608Z,99.90
2022-07-29T04:19:32.632Z,99.90
2022-07-29T04:22:00.698Z,99.90
2022-07-29T04:24:28.390Z,99.90
2022-07-29T04:26:55.795Z,99.90
2022-07-29T04:29:23.096Z,99.90
2022-07-29T04:31:50.328Z,99.90
2022-07-29T04:34:17.859Z,99.90
2022-07-29T04:36:45.371Z,99.90
2022-07-29T04:39:12.473Z,99.90
2022-07-29T04:41:39.886Z,99.90
2022-07-29T04:44:07.503Z,99.90
2022-07-29T04:46:36.892Z,99.90
2022-07-29T04:49:04.907Z,99.90
2022-07-29T04:51:32.273Z,99.90
2022-07-29T04:53:59.390Z,99.90
2022-07-29T04:56:26.579Z,99.90
2022-07-29T04:58:54.209Z,99.90
2022-07-29T05:01:21.676Z,99.90
2022-07-29T05:03:49.220Z,99.90
2022-07-29T05:06:16.819Z,99.90
2022-07-29T05:08:44.019Z,99.90
2022-07-29T05:11:12.635Z,99.90
2022-07-29T05:13:46.340Z,99.90
2022-07-29T05:16:15.330Z,99.90
2022-07-29T05:18:43.378Z,99.90
2022-07-29T05:21:20.313Z,99.90
2022-07-29T05:23:49.919Z,99.90
2022-07-29T05:26:17.389Z,99.90
2022-07-29T05:28:44.709Z,99.90
2022-07-29T05:31:13.192Z,99.90
2022-07-29T05:33:40.364Z,99.90
2022-07-29T05:36:08.445Z,99.90
2022-07-29T05:38:37.176Z,99.90
2022-07-29T05:41:11.738Z,99.90
2022-07-29T05:43:38.988Z,99.90
2022-07-29T05:46:06.167Z,99.90
2022-07-29T05:48:33.457Z,99.90
2022-07-29T05:51:00.601Z,99.90
2022-07-29T05:53:27.769Z,99.90
2022-07-29T05:55:55.085Z,99.90
2022-07-29T05:58:22.293Z,99.90
2022-07-29T06:00:49.481Z,99.90
2022-07-29T06:03:16.862Z,99.90
2022-07-29T06:05:44.201Z,99.90
2022-07-29T06:08:11.442Z,99.90
2022-07-29T06:10:38.780Z,99.90
2022-07-29T06:13:13.407Z,99.90
2022-07-29T06:15:41.090Z,99.90
2022-07-29T06:18:10.285Z,99.90
2022-07-29T06:20:40.578Z,99.90
2022-07-29T06:23:07.790Z,99.90
2022-07-29T06:25:36.569Z,99.90
2022-07-29T06:28:04.096Z,99.90
2022-07-29T06:30:31.376Z,99.90
2022-07-29T06:32:58.801Z,99.90
2022-07-29T06:35:41.638Z,99.90
2022-07-29T06:38:33.725Z,99.90
2022-07-29T06:41:15.641Z,99.90
2022-07-29T06:43:52.465Z,99.90
2022-07-29T06:46:23.504Z,99.90
2022-07-29T06:48:52.764Z,99.90
2022-07-29T06:51:22.883Z,99.90
2022-07-29T06:54:01.563Z,99.90
2022-07-29T06:56:39.004Z,99.90
2022-07-29T06:59:09.400Z,99.90
2022-07-29T07:01:38.214Z,99.90
2022-07-29T07:04:06.038Z,99.90
2022-07-29T07:06:33.519Z,99.90
2022-07-29T07:09:00.766Z,99.90
2022-07-29T07:11:28.094Z,99.90
2022-07-29T07:13:59.291Z,99.90
2022-07-29T07:16:29.657Z,99.90
2022-07-29T07:18:56.790Z,99.90
2022-07-29T07:21:24.109Z,99.90
2022-07-29T07:23:51.303Z,99.90
2022-07-29T07:26:18.398Z,99.90
2022-07-29T07:28:45.812Z,99.90
2022-07-29T07:31:16.204Z,99.90
2022-07-29T07:33:43.404Z,99.90
2022-07-29T07:36:10.888Z,99.90
2022-07-29T07:38:38.085Z,99.90
2022-07-29T07:41:05.387Z,98.90
2022-07-29T07:43:33.006Z,98.90
2022-07-29T07:46:09.447Z,99.20
2022-07-29T07:48:37.219Z,97.10
2022-07-29T07:51:04.874Z,96.20
2022-07-29T07:53:32.116Z,98.50
2022-07-29T07:56:15.481Z,97.90
2022-07-29T07:58:42.896Z,99.90
2022-07-29T08:01:10.889Z,95.70
2022-07-29T08:03:38.582Z,96.90
2022-07-29T08:06:06.428Z,94.70
2022-07-29T08:08:33.697Z,96.20
2022-07-29T08:11:08.334Z,96.30
2022-07-29T08:13:36.665Z,96.30
2022-07-29T08:16:12.698Z,99.40
2022-07-29T08:18:41.527Z,98.30
2022-07-29T08:21:08.623Z,96.50
2022-07-29T08:23:51.506Z,98.70
2022-07-29T08:26:21.257Z,96.80
2022-07-29T08:28:51.366Z,93.40
2022-07-29T08:31:19.282Z,95.90
2022-07-29T08:33:46.795Z,94.20
2022-07-29T08:36:14.394Z,93.50
2022-07-29T08:38:41.607Z,92.40
2022-07-29T08:41:08.823Z,87.50
2022-07-29T08:43:38.556Z,82.00
2022-07-29T08:46:06.096Z,83.00
2022-07-29T08:48:34.730Z,81.80
2022-07-29T08:51:04.447Z,75.50
2022-07-29T08:53:32.871Z,81.60
2022-07-29T08:56:00.610Z,80.20
2022-07-29T08:58:32.875Z,81.40
2022-07-29T09:01:06.850Z,79.10
2022-07-29T09:06:22.469Z,72.40
2022-07-29T09:08:50.269Z,74.40
2022-07-29T09:11:17.946Z,65.30
2022-07-29T09:13:45.120Z,74.10
2022-07-29T09:16:12.796Z,76.40
2022-07-29T09:18:44.861Z,69.10
2022-07-29T09:21:35.670Z,71.10
2022-07-29T09:24:13.402Z,70.80
2022-07-29T09:26:45.500Z,70.10
2022-07-29T09:29:20.756Z,68.40
2022-07-29T09:31:50.783Z,72.40
2022-07-29T09:34:26.678Z,77.70
2022-07-29T09:36:56.057Z,78.00
2022-07-29T09:39:35.555Z,67.00
2022-07-29T09:42:07.813Z,62.50
2022-07-29T09:44:55.000Z,67.10
2022-07-29T09:47:27.108Z,57.30
2022-07-29T09:50:00.573Z,67.10
2022-07-29T09:52:31.666Z,63.10
2022-07-29T09:55:10.069Z,65.10
2022-07-29T09:57:41.539Z,64.90
2022-07-29T10:00:14.316Z,64.90
2022-07-29T10:02:45.062Z,63.70
2022-07-29T10:05:27.103Z,68.50
2022-07-29T10:08:04.371Z,64.20
2022-07-29T10:10:34.298Z,60.70
2022-07-29T10:13:08.774Z,62.40
2022-07-29T10:15:42.084Z,54.70
2022-07-29T10:18:10.604Z,59.00
2022-07-29T10:20:39.164Z,56.10
2022-07-29T10:23:06.711Z,55.90
2022-07-29T10:25:34.052Z,57.40
2022-07-29T10:28:01.176Z,55.60
2022-07-29T10:30:28.828Z,46.40
2022-07-29T10:33:15.324Z,50.70
2022-07-29T10:36:00.357Z,47.40
2022-07-29T10:38:45.937Z,49.60
2022-07-29T10:41:32.006Z,55.60
2022-07-29T10:44:07.588Z,56.00
2022-07-29T10:46:42.718Z,54.80
2022-07-29T10:49:19.054Z,56.80
2022-07-29T10:52:01.924Z,45.30
2022-07-29T10:54:42.401Z,44.60
2022-07-29T10:57:15.612Z,39.70
2022-07-29T10:59:44.554Z,34.50
2022-07-29T11:02:43.981Z,30.30
2022-07-29T11:05:14.212Z,30.30
2022-07-29T11:08:20.427Z,42.60
2022-07-29T11:10:52.682Z,44.00
2022-07-29T11:13:47.369Z,49.50
2022-07-29T11:16:16.934Z,51.00
2022-07-29T11:19:16.040Z,45.10
2022-07-29T11:21:58.266Z,29.70
2022-07-29T11:24:35.018Z,22.90
2022-07-29T11:27:23.254Z,21.10
2022-07-29T11:30:03.428Z,24.70
2022-07-29T11:32:44.603Z,17.00
2022-07-29T11:35:18.977Z,19.00
2022-07-29T11:37:52.645Z,23.80
2022-07-29T11:40:23.284Z,28.40
2022-07-29T11:42:51.906Z,30.90
2022-07-29T11:45:43.189Z,34.30
2022-07-29T11:48:29.900Z,34.10
2022-07-29T11:51:00.737Z,38.80
2022-07-29T11:53:29.049Z,37.70
2022-07-29T11:56:01.336Z,32.90
2022-07-29T11:58:31.037Z,34.70
2022-07-29T12:03:46.405Z,33.80
2022-07-29T12:06:17.397Z,37.10
2022-07-29T12:07:03.639Z,27.90
2022-07-29T12:08:46.024Z,37.30
2022-07-29T12:11:22.965Z,35.80
2022-07-29T12:13:52.771Z,39.50
2022-07-29T12:16:26.020Z,41.80
2022-07-29T12:19:02.112Z,41.30
2022-07-29T12:21:45.719Z,46.00
2022-07-29T12:24:20.710Z,46.40
2022-07-29T12:26:58.345Z,46.90
2022-07-29T12:29:35.170Z,39.40
2022-07-29T12:32:04.804Z,32.60
2022-07-29T12:34:32.849Z,33.10
2022-07-29T12:37:00.377Z,40.00
2022-07-29T12:39:29.324Z,35.20
2022-07-29T12:42:04.194Z,36.90
2022-07-29T12:44:51.647Z,43.50
2022-07-29T12:47:21.086Z,37.50
2022-07-29T12:49:49.843Z,25.10
2022-07-29T12:52:35.251Z,21.70
2022-07-29T12:55:02.848Z,29.90
2022-07-29T12:57:32.705Z,37.70
2022-07-29T13:00:11.658Z,38.00
2022-07-29T13:02:40.198Z,37.70
2022-07-29T13:05:09.456Z,37.50
2022-07-29T13:10:23.950Z,39.90
2022-07-29T13:13:11.602Z,32.60
2022-07-29T13:15:43.406Z,32.90
2022-07-29T13:18:30.769Z,33.30
2022-07-29T13:20:58.656Z,36.40
2022-07-29T13:23:25.923Z,29.50
2022-07-29T13:25:53.139Z,31.30
2022-07-29T13:28:22.574Z,35.80
2022-07-29T13:30:54.103Z,26.40
2022-07-29T13:33:21.703Z,22.90
2022-07-29T13:35:49.042Z,21.20
2022-07-29T13:38:16.320Z,21.30
2022-07-29T13:40:43.805Z,19.90
2022-07-29T13:43:11.681Z,18.20
2022-07-29T13:45:39.533Z,18.90
2022-07-29T13:48:07.469Z,19.30
2022-07-29T13:50:34.647Z,17.40
2022-07-29T13:53:01.869Z,16.30
2022-07-29T13:55:29.116Z,16.50
2022-07-29T13:57:56.246Z,25.70
2022-07-29T14:00:24.740Z,20.20
2022-07-29T14:02:51.917Z,19.20
2022-07-29T14:05:19.701Z,19.30
2022-07-29T14:07:47.329Z,20.00
2022-07-29T14:10:19.738Z,21.00
2022-07-29T14:12:47.212Z,19.00
2022-07-29T14:15:14.437Z,19.30
2022-07-29T14:17:41.593Z,19.50
2022-07-29T14:20:09.191Z,15.70
2022-07-29T14:22:41.799Z,19.60
2022-07-29T14:25:15.134Z,21.00
2022-07-29T14:27:45.940Z,25.10
2022-07-29T14:32:54.882Z,33.10
2022-07-29T14:35:22.140Z,35.20
2022-07-29T14:37:50.241Z,37.40
2022-07-29T14:40:17.374Z,36.10
2022-07-29T14:42:44.677Z,38.40
2022-07-29T14:45:11.993Z,36.80
2022-07-29T14:47:40.506Z,36.60
2022-07-29T14:50:23.208Z,36.80
2022-07-29T14:52:58.782Z,37.20
2022-07-29T14:55:26.073Z,38.50
2022-07-29T14:57:58.577Z,37.70
2022-07-29T15:00:33.485Z,37.20
2022-07-29T15:03:02.944Z,38.90
2022-07-29T15:05:31.505Z,40.30
2022-07-29T15:07:59.946Z,37.30
2022-07-29T15:10:29.997Z,40.90
2022-07-29T15:12:57.318Z,38.40
2022-07-29T15:15:24.587Z,39.10
2022-07-29T15:17:52.029Z,37.10
2022-07-29T15:20:19.289Z,37.90
2022-07-29T15:22:46.463Z,38.80
2022-07-29T15:25:24.488Z,38.00
2022-07-29T15:27:54.718Z,38.10
2022-07-29T15:30:31.455Z,39.10
2022-07-29T15:33:05.182Z,39.20
2022-07-29T15:35:40.387Z,41.00
2022-07-29T15:38:09.287Z,40.30
2022-07-29T15:40:39.137Z,41.30
2022-07-29T15:43:06.918Z,41.30
2022-07-29T15:46:03.148Z,41.70
2022-07-29T15:48:30.712Z,40.90
2022-07-29T15:50:58.110Z,42.60
2022-07-29T15:53:26.019Z,43.80
2022-07-29T15:55:53.094Z,43.30
2022-07-29T15:58:20.235Z,44.40
2022-07-29T16:00:47.588Z,44.50
2022-07-29T16:03:14.976Z,44.90
2022-07-29T16:05:43.154Z,43.90
2022-07-29T16:08:10.508Z,44.70
2022-07-29T16:10:37.754Z,45.80
2022-07-29T16:13:05.004Z,44.40
2022-07-29T16:15:32.397Z,45.80
2022-07-29T16:17:59.625Z,44.00
2022-07-29T16:20:26.965Z,47.60
2022-07-29T16:22:54.779Z,51.70
2022-07-29T16:28:03.390Z,59.50
2022-07-29T16:30:30.514Z,60.90
2022-07-29T16:32:57.674Z,62.60
2022-07-29T16:35:25.012Z,64.40
2022-07-29T16:38:07.192Z,63.90
2022-07-29T16:40:34.441Z,66.00
2022-07-29T16:43:01.872Z,67.00
2022-07-29T16:45:45.145Z,68.00
2022-07-29T16:48:18.076Z,71.20
2022-07-29T16:50:46.453Z,71.30
2022-07-29T16:53:13.701Z,71.70
2022-07-29T16:55:42.373Z,71.50
2022-07-29T16:58:11.058Z,71.70
2022-07-29T17:00:38.648Z,72.90
2022-07-29T17:03:06.249Z,73.70
2022-07-29T17:05:50.361Z,71.70
2022-07-29T17:08:20.840Z,73.00
2022-07-29T17:10:48.289Z,73.10
2022-07-29T17:13:15.660Z,75.90
2022-07-29T17:15:43.240Z,74.70
2022-07-29T17:18:12.710Z,75.60
2022-07-29T17:20:41.862Z,74.50
2022-07-29T17:23:09.199Z,75.90
2022-07-29T17:25:36.485Z,76.50
2022-07-29T17:28:04.108Z,76.80
2022-07-29T17:30:31.557Z,77.10
2022-07-29T17:32:59.062Z,77.40
2022-07-29T17:35:44.586Z,77.70
2022-07-29T17:38:11.864Z,80.60
2022-07-29T17:40:39.476Z,81.30
2022-07-29T17:43:09.407Z,79.20
2022-07-29T17:45:49.914Z,79.60
2022-07-29T17:48:18.978Z,79.80
2022-07-29T17:50:47.697Z,78.30
2022-07-29T17:53:16.513Z,78.60
2022-07-29T17:55:48.864Z,79.40
2022-07-29T17:58:16.286Z,81.00
2022-07-29T18:00:43.602Z,83.90
2022-07-29T18:03:11.157Z,81.60
2022-07-29T18:05:38.671Z,78.70
2022-07-29T18:10:50.887Z,81.10
2022-07-29T18:13:18.152Z,79.50
2022-07-29T18:15:46.202Z,80.40
2022-07-29T18:18:15.262Z,80.50
2022-07-29T18:20:45.830Z,80.30
2022-07-29T18:23:13.676Z,82.80
2022-07-29T18:25:41.499Z,79.90
2022-07-29T18:28:09.250Z,83.30
2022-07-29T18:30:39.285Z,80.90
2022-07-29T18:33:22.626Z,82.40
2022-07-29T18:35:52.522Z,82.40
2022-07-29T18:38:38.173Z,86.60
2022-07-29T18:41:05.341Z,82.20
2022-07-29T18:43:32.681Z,83.50
2022-07-29T18:46:00.025Z,83.20
2022-07-29T18:48:27.497Z,83.00
2022-07-29T18:50:54.616Z,83.80
2022-07-29T18:56:03.620Z,84.40
2022-07-29T18:58:36.052Z,82.40
2022-07-29T19:01:03.657Z,84.60
2022-07-29T19:03:30.901Z,85.60
2022-07-29T19:05:58.009Z,90.10
2022-07-29T19:08:25.187Z,87.80
2022-07-29T19:10:53.485Z,88.70
2022-07-29T19:13:20.642Z,89.60
2022-07-29T19:15:48.190Z,90.30
2022-07-29T19:18:15.391Z,91.30
2022-07-29T19:20:42.549Z,91.60
2022-07-29T19:23:10.105Z,93.10
2022-07-29T19:25:37.625Z,92.60
2022-07-29T19:28:27.350Z,92.90
2022-07-29T19:30:54.690Z,95.00
2022-07-29T19:33:22.128Z,95.00
2022-07-29T19:35:59.533Z,98.30
2022-07-29T19:38:27.494Z,98.90
2022-07-29T19:40:54.642Z,99.80
2022-07-29T19:43:52.136Z,98.90
2022-07-29T19:46:25.317Z,99.90
2022-07-29T19:48:53.635Z,99.90
2022-07-29T19:51:21.519Z,99.90
2022-07-29T19:53:49.154Z,99.90
2022-07-29T19:56:16.340Z,99.90
2022-07-29T19:58:44.835Z,99.90
2022-07-29T20:01:12.581Z,99.90
2022-07-29T20:03:40.861Z,99.90
2022-07-29T20:06:08.616Z,99.90
2022-07-29T20:08:36.016Z,99.90
2022-07-29T20:11:03.561Z,99.90
2022-07-29T20:13:33.236Z,99.90
2022-07-29T20:16:02.021Z,99.90
2022-07-29T20:18:29.306Z,99.90
2022-07-29T20:20:57.718Z,99.90
2022-07-29T20:23:24.882Z,99.90
2022-07-29T20:25:52.094Z,99.90
2022-07-29T20:28:21.260Z,99.90
2022-07-29T20:30:48.760Z,99.90
2022-07-29T20:33:16.330Z,99.90
2022-07-29T20:35:43.885Z,99.90
2022-07-29T20:38:15.037Z,99.90
2022-07-29T20:40:45.049Z,99.90
2022-07-29T20:43:12.782Z,99.90
2022-07-29T20:45:40.121Z,99.90
2022-07-29T20:48:08.355Z,99.90
2022-07-29T20:50:36.107Z,99.90
2022-07-29T20:53:03.384Z,99.90
2022-07-29T20:55:32.218Z,99.90
2022-07-29T20:57:59.728Z,99.90
2022-07-29T21:00:26.958Z,99.90
2022-07-29T21:02:54.274Z,99.90
2022-07-29T21:05:21.608Z,99.90
2022-07-29T21:07:48.920Z,99.90
2022-07-29T21:10:18.403Z,99.90
2022-07-29T21:12:46.828Z,99.90
2022-07-29T21:15:20.573Z,99.90
2022-07-29T21:17:48.640Z,99.90
2022-07-29T21:20:17.748Z,99.90
2022-07-29T21:22:45.634Z,99.90
2022-07-29T21:25:13.096Z,99.90
2022-07-29T21:27:58.581Z,99.90
2022-07-29T21:30:25.989Z,99.90
2022-07-29T21:32:53.356Z,99.90
2022-07-29T21:36:02.106Z,99.90
2022-07-29T21:38:07.719Z,99.90
2022-07-29T21:40:34.808Z,99.90
2022-07-29T21:43:02.197Z,99.90
2022-07-29T21:45:30.240Z,99.90
2022-07-29T21:47:57.847Z,99.90
2022-07-29T21:50:25.031Z,99.90
2022-07-29T21:52:52.199Z,99.90
2022-07-29T21:55:20.343Z,99.90
2022-07-29T21:57:50.842Z,99.90
2022-07-29T22:00:18.049Z,99.90
2022-07-29T22:02:45.541Z,99.90
2022-07-29T22:05:13.130Z,99.90
2022-07-29T22:07:56.343Z,99.90
2022-07-29T22:10:26.006Z,99.90
2022-07-29T22:12:55.071Z,99.90
2022-07-29T22:15:22.877Z,99.90
2022-07-29T22:17:55.397Z,99.90
2022-07-29T22:20:23.172Z,99.90
2022-07-29T22:22:50.552Z,99.90
2022-07-29T22:25:17.992Z,99.90
2022-07-29T22:27:45.216Z,99.90
2022-07-29T22:30:13.415Z,99.90
2022-07-29T22:32:40.745Z,99.90
2022-07-29T22:35:08.390Z,99.90
2022-07-29T22:37:35.821Z,99.90
2022-07-29T22:40:03.327Z,99.90
2022-07-29T22:42:30.831Z,99.90
2022-07-29T22:44:58.445Z,99.90
2022-07-29T22:47:38.709Z,99.90
2022-07-29T22:50:13.302Z,99.90
2022-07-29T22:52:40.514Z,99.90
2022-07-29T22:55:08.096Z,99.90
2022-07-29T22:57:35.290Z,99.90
2022-07-29T23:00:02.637Z,99.90
2022-07-29T23:02:31.520Z,99.90
2022-07-29T23:04:58.798Z,99.90
2022-07-29T23:07:26.670Z,99.90
2022-07-29T23:09:53.863Z,99.90
2022-07-29T23:12:20.944Z,99.90
2022-07-29T23:14:48.076Z,99.90
2022-07-29T23:17:15.225Z,99.90
2022-07-29T23:19:42.682Z,99.90
2022-07-29T23:22:10.043Z,99.90
2022-07-29T23:24:39.169Z,99.90
2022-07-29T23:27:08.200Z,99.90
2022-07-29T23:29:36.882Z,99.90
2022-07-29T23:32:04.401Z,99.90
2022-07-29T23:34:31.513Z,99.90
2022-07-29T23:36:59.348Z,99.90
2022-07-29T23:39:26.609Z,99.90
2022-07-29T23:41:53.737Z,99.90
2022-07-29T23:44:21.166Z,99.90
2022-07-29T23:46:48.573Z,99.90
2022-07-29T23:49:21.167Z,99.90
2022-07-29T23:51:48.348Z,99.90
2022-07-29T23:54:15.505Z,99.90
2022-07-29T23:56:42.629Z,99.90
2022-07-29T23:59:09.902Z,99.90
